Time;durP1;ratioP1;P1;durP2;ratioP2;P2;SDS_P1;SDS_P2;PMS_P1;PMS_P2;Temp;Humidity;BMP_temperature;BMP_pressure;BME280_temperature;BME280_humidity;BME280_pressure;Samples;Min_cycle;Max_cycle;Signal;HPM_P1;HPM_P2
2022/08/11 00:00:20;;;;;;;3.23;3.10;;;20.80;51.00;;;;;;5024375;28;20478;-72
2022/08/11 00:02:54;;;;;;;5.33;3.53;;;20.80;50.90;;;;;;5013334;28;20479;-72
2022/08/11 00:05:20;;;;;;;5.13;3.67;;;20.80;51.00;;;;;;5009497;28;20426;-72
2022/08/11 00:07:56;;;;;;;4.77;3.40;;;20.80;51.20;;;;;;5015161;28;20470;-72
2022/08/11 00:10:24;;;;;;;5.07;3.50;;;20.80;51.00;;;;;;5019357;28;20504;-72
2022/08/11 00:12:59;;;;;;;5.60;3.57;;;20.70;51.20;;;;;;5024451;28;20434;-73
2022/08/11 00:15:35;;;;;;;4.33;3.00;;;20.70;51.20;;;;;;5016305;28;20434;-73
2022/08/11 00:18:02;;;;;;;3.90;3.40;;;20.60;51.30;;;;;;5019958;28;21015;-73
2022/08/11 00:20:35;;;;;;;5.60;3.17;;;20.60;51.30;;;;;;5013487;28;20432;-73
2022/08/11 00:23:09;;;;;;;3.67;3.13;;;20.50;51.30;;;;;;5021839;28;20465;-72
2022/08/11 00:25:47;;;;;;;3.20;3.00;;;20.50;51.60;;;;;;5002309;28;21013;-73
2022/08/11 00:28:31;;;;;;;5.80;3.53;;;20.50;52.00;;;;;;5004334;28;21023;-72
2022/08/11 00:31:06;;;;;;;5.40;3.23;;;20.40;51.80;;;;;;4995527;28;20451;-71
2022/08/11 00:33:43;;;;;;;4.20;3.37;;;20.40;51.80;;;;;;5008819;28;20437;-74
2022/08/11 00:36:15;;;;;;;4.97;3.13;;;20.40;52.10;;;;;;5009379;28;20807;-74
2022/08/11 00:38:44;;;;;;;4.00;3.30;;;20.40;52.10;;;;;;5013048;28;20981;-72
2022/08/11 00:41:30;;;;;;;8.50;4.23;;;20.40;51.80;;;;;;5017366;28;20425;-73
2022/08/11 00:44:33;;;;;;;4.83;3.17;;;20.50;51.80;;;;;;5011271;28;20478;-74
2022/08/11 00:47:23;;;;;;;6.00;3.20;;;20.40;51.70;;;;;;5002927;28;20468;-72
2022/08/11 00:50:12;;;;;;;4.83;3.60;;;20.30;52.10;;;;;;4992985;28;20470;-73
2022/08/11 00:52:56;;;;;;;6.40;3.50;;;20.20;52.60;;;;;;4996909;28;20448;-73
2022/08/11 00:56:00;;;;;;;3.93;3.23;;;20.30;52.50;;;;;;5015301;28;20509;-72
2022/08/11 00:58:37;;;;;;;4.10;3.50;;;20.20;52.20;;;;;;5014880;28;20425;-72
2022/08/11 01:01:15;;;;;;;5.00;3.33;;;20.20;52.90;;;;;;5014108;28;20533;-73
2022/08/11 01:04:16;;;;;;;5.97;3.40;;;20.20;53.20;;;;;;5016374;28;20472;-72
2022/08/11 01:07:29;;;;;;;4.67;3.27;;;20.10;53.20;;;;;;5003690;28;20587;-72
2022/08/11 01:10:22;;;;;;;5.43;4.10;;;20.10;53.40;;;;;;5014436;28;20417;-72
2022/08/11 01:12:59;;;;;;;4.17;3.27;;;20.10;53.60;;;;;;5014123;28;20437;-74
2022/08/11 01:15:48;;;;;;;3.53;3.13;;;20.10;53.40;;;;;;5014332;28;20535;-73
2022/08/11 01:18:32;;;;;;;5.47;3.30;;;20.10;53.30;;;;;;5013333;28;20443;-73
2022/08/11 01:21:22;;;;;;;4.50;3.13;;;20.00;53.60;;;;;;4990224;28;20425;-72
2022/08/11 01:24:29;;;;;;;3.30;3.00;;;20.00;53.40;;;;;;5009087;28;20490;-73
2022/08/11 01:27:10;;;;;;;7.53;3.47;;;20.10;53.40;;;;;;4979396;28;20874;-74
2022/08/11 01:30:12;;;;;;;4.53;3.53;;;20.00;53.40;;;;;;5014731;28;20528;-74
2022/08/11 01:33:15;;;;;;;4.40;3.33;;;20.00;53.70;;;;;;4994855;28;20927;-72
2022/08/11 01:36:01;;;;;;;7.90;3.30;;;20.00;53.80;;;;;;5012933;28;20436;-73
2022/08/11 01:38:48;;;;;;;3.80;3.23;;;20.00;54.00;;;;;;5011018;28;20434;-74
2022/08/11 01:44:50;;;;;;;4.50;2.93;;;19.90;54.40;;;;;;5008341;28;20426;-75
2022/08/11 01:50:51;;;;;;;5.27;3.10;;;19.80;54.60;;;;;;5008598;28;21290;-73
2022/08/11 01:53:17;;;;;;;6.93;3.40;;;19.80;55.00;;;;;;5006501;28;20492;-74
2022/08/11 01:55:57;;;;;;;3.83;3.47;;;19.70;55.00;;;;;;5014972;28;20509;-72
2022/08/11 01:58:53;;;;;;;4.87;3.60;;;19.70;55.30;;;;;;5008495;28;20209;-72
2022/08/11 02:01:27;;;;;;;3.80;3.20;;;19.70;55.60;;;;;;5003709;28;20511;-73
2022/08/11 02:03:56;;;;;;;4.70;3.67;;;19.60;55.80;;;;;;5012850;28;20468;-73
2022/08/11 02:06:55;;;;;;;5.37;3.57;;;19.60;56.00;;;;;;5015793;28;20597;-72
2022/08/11 02:09:33;;;;;;;6.73;3.20;;;19.60;56.20;;;;;;5009525;28;20413;-73
2022/08/11 02:12:08;;;;;;;4.67;3.50;;;19.50;56.50;;;;;;5016445;28;20453;-72
2022/08/11 02:14:43;;;;;;;4.00;3.17;;;19.50;56.60;;;;;;5014044;28;20488;-74
2022/08/11 02:17:35;;;;;;;4.20;3.50;;;19.50;56.50;;;;;;4999180;28;20463;-74
2022/08/11 02:23:42;;;;;;;4.93;4.23;;;19.40;57.00;;;;;;4978378;28;20453;-72
2022/08/11 02:26:09;;;;;;;13.60;4.93;;;19.40;56.90;;;;;;5006017;28;20471;-73
2022/08/11 02:28:48;;;;;;;7.13;4.37;;;19.30;57.30;;;;;;5011543;28;20447;-74
2022/08/11 02:34:30;;;;;;;7.20;4.70;;;19.40;57.00;;;;;;5010398;28;20409;-72
2022/08/11 02:36:56;;;;;;;6.40;4.43;;;19.40;57.40;;;;;;5006964;28;20593;-73
2022/08/11 02:39:27;;;;;;;5.13;4.00;;;19.50;57.60;;;;;;5014471;28;20518;-71
2022/08/11 02:42:24;;;;;;;5.87;4.33;;;19.30;58.10;;;;;;5015738;28;20191;-73
2022/08/11 02:45:28;;;;;;;10.00;5.23;;;19.20;58.50;;;;;;5018808;28;20445;-72
2022/08/11 02:51:00;;;;;;;6.87;4.30;;;19.20;58.90;;;;;;5018734;28;20424;-72
2022/08/11 02:53:47;;;;;;;6.40;4.50;;;19.20;58.80;;;;;;5008723;28;20439;-72
2022/08/11 02:56:41;;;;;;;5.70;4.10;;;19.30;58.80;;;;;;5017264;28;20461;-72
2022/08/11 02:59:49;;;;;;;7.90;4.00;;;19.30;58.90;;;;;;5017090;28;20425;-73
2022/08/11 03:02:44;;;;;;;5.40;4.10;;;19.20;59.10;;;;;;5018591;28;20481;-72
2022/08/11 03:05:13;;;;;;;6.83;4.77;;;19.10;59.50;;;;;;5000176;28;20849;-74
2022/08/11 03:07:38;;;;;;;6.03;4.40;;;19.00;59.70;;;;;;5017486;28;20863;-72
2022/08/11 03:10:22;;;;;;;4.23;3.67;;;19.00;59.90;;;;;;5002344;28;20439;-73
2022/08/11 03:19:11;;;;;;;4.50;4.07;;;18.90;60.60;;;;;;5021363;28;20414;-73
2022/08/11 03:22:10;;;;;;;6.10;5.30;;;18.80;60.90;;;;;;5013620;28;20423;-74
2022/08/11 03:25:18;;;;;;;6.50;4.40;;;18.70;61.20;;;;;;5012931;28;20432;-74
2022/08/11 03:27:52;;;;;;;6.20;3.70;;;18.60;61.30;;;;;;4891857;29;20472;-73
2022/08/11 03:30:46;;;;;;;5.50;4.43;;;18.50;61.60;;;;;;4900910;29;20430;-73
2022/08/11 03:36:13;;;;;;;6.40;4.00;;;18.40;62.30;;;;;;4899484;29;20483;-72
2022/08/11 03:38:54;;;;;;;5.90;4.70;;;18.30;62.50;;;;;;4898202;29;20426;-72
2022/08/11 03:42:04;;;;;;;8.20;4.30;;;18.40;62.50;;;;;;4888837;29;20511;-74
2022/08/11 03:44:39;;;;;;;7.27;4.80;;;18.30;62.60;;;;;;4872443;29;20446;-74
2022/08/11 03:47:16;;;;;;;5.97;4.53;;;18.30;62.90;;;;;;4893314;29;20460;-74
2022/08/11 03:50:01;;;;;;;6.20;4.40;;;18.30;62.90;;;;;;4893127;29;20432;-72
2022/08/11 03:52:45;;;;;;;5.03;4.33;;;18.30;62.90;;;;;;4879213;29;20464;-73
2022/08/11 03:55:33;;;;;;;6.63;4.17;;;18.30;63.10;;;;;;4895996;29;20513;-74
2022/08/11 03:58:31;;;;;;;5.57;4.03;;;18.20;63.20;;;;;;4892069;29;21524;-74
2022/08/11 04:01:31;;;;;;;5.97;3.93;;;18.20;63.20;;;;;;4897175;29;20448;-73
2022/08/11 04:04:34;;;;;;;6.33;4.43;;;18.10;63.50;;;;;;4973749;28;20468;-72
2022/08/11 04:07:38;;;;;;;5.73;4.10;;;18.00;63.70;;;;;;5014066;28;20549;-74
2022/08/11 04:10:09;;;;;;;6.13;4.73;;;18.00;63.80;;;;;;5011355;28;20422;-72
2022/08/11 04:13:12;;;;;;;12.70;4.97;;;17.90;64.10;;;;;;5015707;28;20475;-73
2022/08/11 04:16:15;;;;;;;6.00;4.10;;;17.90;64.40;;;;;;5012010;28;20512;-72
2022/08/11 04:19:28;;;;;;;5.27;4.63;;;17.90;64.10;;;;;;5010390;28;20934;-72
2022/08/11 04:22:15;;;;;;;6.33;4.60;;;17.90;64.10;;;;;;5019617;28;20420;-75
2022/08/11 04:24:56;;;;;;;4.97;4.33;;;17.90;64.10;;;;;;5015455;28;20449;-74
2022/08/11 04:27:42;;;;;;;9.70;5.30;;;17.90;64.40;;;;;;5011775;28;20452;-75
2022/08/11 04:30:27;;;;;;;5.73;4.50;;;17.90;64.40;;;;;;5009479;28;21046;-72
2022/08/11 04:33:33;;;;;;;7.20;4.70;;;17.90;64.40;;;;;;5019852;28;20449;-72
2022/08/11 04:36:08;;;;;;;7.20;4.70;;;17.80;64.70;;;;;;5002774;28;20459;-70
2022/08/11 04:39:02;;;;;;;6.43;4.20;;;17.90;64.70;;;;;;5011347;28;20793;-71
2022/08/11 04:45:09;;;;;;;7.20;5.27;;;17.90;64.50;;;;;;5010899;28;20439;-71
2022/08/11 05:03:28;;;;;;;6.50;4.80;;;18.00;64.50;;;;;;5012925;28;20463;-72
2022/08/11 05:06:18;;;;;;;7.30;4.73;;;18.10;64.50;;;;;;4977051;28;20426;-72
2022/08/11 05:09:24;;;;;;;7.40;5.00;;;18.10;64.50;;;;;;5006473;28;20936;-71
2022/08/11 05:12:28;;;;;;;6.50;4.90;;;18.10;64.70;;;;;;4997892;28;20432;-73
2022/08/11 05:35:02;;;;;;;7.33;5.13;;;18.50;64.20;;;;;;5015955;28;20470;-72
2022/08/11 05:37:27;;;;;;;8.37;5.10;;;18.50;64.10;;;;;;5006248;28;20524;-74
2022/08/11 05:57:07;;;;;;;5.77;4.90;;;18.90;63.20;;;;;;5005353;28;20511;-70
2022/08/11 05:59:33;;;;;;;6.87;5.20;;;19.00;63.20;;;;;;5013423;28;20427;-71
2022/08/11 06:02:06;;;;;;;10.57;5.57;;;19.10;63.10;;;;;;5006104;28;20497;-73
2022/08/11 06:04:33;;;;;;;10.37;5.50;;;19.10;62.50;;;;;;5018474;28;20453;-73
2022/08/11 06:07:02;;;;;;;11.00;5.47;;;19.20;62.50;;;;;;5012991;28;20957;-72
2022/08/11 06:09:35;;;;;;;9.17;5.93;;;19.30;62.20;;;;;;5016913;28;20452;-71
2022/08/11 06:12:07;;;;;;;10.97;5.77;;;19.30;61.90;;;;;;5008486;28;20405;-71
2022/08/11 06:14:34;;;;;;;12.20;6.57;;;19.30;61.50;;;;;;5014432;28;20432;-71
2022/08/11 06:17:02;;;;;;;13.20;5.80;;;19.50;61.60;;;;;;5009662;28;20495;-68
2022/08/11 06:19:37;;;;;;;10.90;6.40;;;19.60;61.20;;;;;;5021593;28;20416;-69
2022/08/11 06:22:05;;;;;;;8.07;5.87;;;19.70;61.00;;;;;;4998113;28;20486;-70
2022/08/11 06:24:31;;;;;;;9.00;5.83;;;19.80;60.60;;;;;;5001039;28;20492;-70
2022/08/11 06:26:59;;;;;;;7.00;5.60;;;19.90;60.10;;;;;;5016288;28;20452;-68
2022/08/11 06:29:26;;;;;;;12.23;6.47;;;20.00;59.60;;;;;;5007382;28;20507;-68
2022/08/11 06:32:01;;;;;;;11.30;6.10;;;20.10;58.70;;;;;;5019913;28;20429;-70
2022/08/11 06:35:00;;;;;;;11.10;5.93;;;20.10;58.70;;;;;;5001580;28;20454;-70
2022/08/11 06:37:54;;;;;;;10.50;6.63;;;20.20;58.20;;;;;;4990109;28;20488;-73
2022/08/11 06:40:28;;;;;;;12.30;7.00;;;20.30;57.70;;;;;;5009540;28;20444;-70
2022/08/11 06:43:21;;;;;;;8.20;6.13;;;20.30;57.80;;;;;;5001505;28;21157;-71
2022/08/11 06:46:04;;;;;;;12.67;6.20;;;20.40;57.60;;;;;;5018226;28;20431;-70
2022/08/11 06:48:34;;;;;;;10.40;5.90;;;20.50;57.20;;;;;;5013133;28;20490;-68
2022/08/11 06:51:11;;;;;;;11.60;6.10;;;20.50;57.30;;;;;;5012691;28;21125;-70
2022/08/11 06:53:46;;;;;;;11.10;5.77;;;20.60;57.20;;;;;;4992823;28;20440;-71
2022/08/11 07:02:19;;;;;;;9.30;5.60;;;20.80;56.20;;;;;;5014518;28;20407;-73
2022/08/11 07:05:03;;;;;;;8.63;5.97;;;20.90;56.20;;;;;;4979845;28;20428;-72
2022/08/11 07:16:28;;;;;;;8.20;6.10;;;21.10;55.70;;;;;;5014153;28;20461;-74
2022/08/11 07:30:11;;;;;;;7.60;5.50;;;21.50;54.60;;;;;;5010465;28;20951;-73
2022/08/11 07:32:52;;;;;;;8.70;5.47;;;21.70;54.50;;;;;;5013450;28;20436;-73
2022/08/11 07:35:32;;;;;;;8.43;4.93;;;21.80;54.20;;;;;;5024383;28;20432;-73
2022/08/11 07:38:02;;;;;;;7.17;5.10;;;21.90;53.80;;;;;;4993071;28;20542;-73
2022/08/11 07:40:29;;;;;;;15.10;5.60;;;21.80;54.00;;;;;;5018912;28;20427;-73
2022/08/11 07:42:57;;;;;;;10.93;5.07;;;21.90;54.00;;;;;;5015606;28;20472;-74
2022/08/11 07:53:39;;;;;;;7.77;5.80;;;22.40;52.60;;;;;;5008426;28;20415;-71
2022/08/11 07:56:06;;;;;;;12.60;6.10;;;22.50;52.10;;;;;;5005145;28;20464;-74
2022/08/11 08:18:00;;;;;;;8.50;5.10;;;23.20;49.90;;;;;;5007616;28;20520;-74
2022/08/11 08:20:35;;;;;;;5.70;4.80;;;23.30;49.40;;;;;;5013570;28;20435;-73
2022/08/11 08:23:04;;;;;;;8.73;5.40;;;23.40;49.40;;;;;;5018274;28;20470;-74
2022/08/11 08:25:32;;;;;;;7.20;5.43;;;23.40;48.90;;;;;;5014013;28;20434;-75
2022/08/11 08:28:00;;;;;;;14.33;5.60;;;23.60;48.90;;;;;;5004096;28;20476;-73
2022/08/11 08:33:39;;;;;;;6.90;5.20;;;23.90;47.80;;;;;;5008020;28;20481;-74
2022/08/11 08:36:13;;;;;;;7.43;4.77;;;24.00;47.30;;;;;;5013299;28;20478;-71
2022/08/11 08:38:41;;;;;;;7.60;5.27;;;24.10;46.50;;;;;;5017549;28;20432;-75
2022/08/11 08:41:07;;;;;;;8.13;5.37;;;24.10;46.20;;;;;;5021127;28;20430;-72
2022/08/11 08:43:35;;;;;;;6.90;4.67;;;24.20;45.80;;;;;;5022076;28;20508;-74
2022/08/11 08:46:04;;;;;;;5.47;4.33;;;24.30;45.10;;;;;;5010000;28;20459;-74
2022/08/11 08:48:31;;;;;;;7.33;4.67;;;24.30;45.10;;;;;;4999740;28;20439;-73
2022/08/11 08:53:50;;;;;;;8.00;5.00;;;24.40;45.10;;;;;;5013318;28;20414;-74
2022/08/11 08:56:17;;;;;;;8.07;4.60;;;24.40;45.30;;;;;;5007793;28;20990;-72
2022/08/11 08:58:47;;;;;;;6.27;4.90;;;24.50;45.00;;;;;;5008191;28;21076;-74
2022/08/11 09:01:15;;;;;;;7.50;4.77;;;24.50;44.60;;;;;;5012566;28;20429;-72
2022/08/11 09:03:42;;;;;;;5.27;4.47;;;24.50;44.60;;;;;;5015301;28;20476;-74
2022/08/11 09:06:09;;;;;;;6.67;4.50;;;24.60;44.60;;;;;;5004062;28;20447;-74
2022/08/11 09:08:35;;;;;;;6.03;4.63;;;24.70;43.80;;;;;;5004427;28;20924;-72
2022/08/11 09:13:47;;;;;;;6.30;4.43;;;24.90;43.00;;;;;;5003672;28;20425;-73
2022/08/11 09:16:14;;;;;;;6.23;4.73;;;24.90;42.70;;;;;;5014159;28;20465;-73
2022/08/11 09:18:43;;;;;;;5.30;4.27;;;25.00;42.60;;;;;;5022680;28;20417;-73
2022/08/11 09:21:13;;;;;;;6.50;4.27;;;25.00;42.20;;;;;;5020185;28;20788;-74
2022/08/11 09:29:10;;;;;;;7.47;4.70;;;25.10;41.10;;;;;;5006311;28;20525;-74
2022/08/11 09:31:36;;;;;;;10.33;4.10;;;25.10;41.00;;;;;;5012984;28;20430;-74
2022/08/11 09:34:02;;;;;;;5.40;4.50;;;25.20;41.00;;;;;;4996370;28;20430;-73
2022/08/11 09:42:01;;;;;;;8.33;4.80;;;25.40;40.70;;;;;;5013873;28;20919;-75
2022/08/11 09:44:46;;;;;;;8.03;4.43;;;25.40;40.70;;;;;;5019596;28;20793;-74
2022/08/11 09:47:18;;;;;;;5.50;4.17;;;25.50;40.60;;;;;;5013128;28;20478;-75
2022/08/11 09:49:45;;;;;;;4.60;3.53;;;25.60;40.40;;;;;;4992645;28;20476;-72
2022/08/11 09:52:13;;;;;;;6.63;4.13;;;25.70;40.40;;;;;;5003020;28;20436;-74
2022/08/11 09:54:41;;;;;;;7.30;3.73;;;25.80;39.40;;;;;;5014458;28;20436;-74
2022/08/11 09:59:52;;;;;;;6.13;3.80;;;25.90;38.60;;;;;;5012536;28;20924;-74
2022/08/11 10:02:25;;;;;;;7.30;4.13;;;26.00;37.60;;;;;;5025890;28;20552;-75
2022/08/11 10:07:00;;;;;;;7.60;3.70;;;26.10;37.50;;;;;;5003976;28;20431;-73
2022/08/11 10:07:39;;;;;;;4.53;3.60;;;26.20;37.60;;;;;;5010818;28;20476;-75
2022/08/11 10:10:06;;;;;;;4.33;3.50;;;26.10;38.00;;;;;;5015042;28;20424;-74
2022/08/11 10:12:34;;;;;;;7.70;3.93;;;26.20;38.30;;;;;;5010859;28;20434;-73
2022/08/11 10:21:42;;;;;;;8.00;3.73;;;26.40;36.20;;;;;;5028388;28;20423;-73
2022/08/11 10:26:59;;;;;;;15.47;4.57;;;27.20;35.20;;;;;;5013655;28;20898;-74
2022/08/11 10:35:12;;;;;;;8.43;4.27;;;27.80;34.80;;;;;;5002852;28;20896;-73
2022/08/11 10:37:39;;;;;;;4.87;3.87;;;28.10;33.30;;;;;;5013893;28;20968;-74
2022/08/11 10:40:07;;;;;;;4.97;3.60;;;28.20;32.90;;;;;;5007551;28;20429;-74
2022/08/11 10:48:05;;;;;;;5.20;4.00;;;28.40;32.40;;;;;;5015735;28;20464;-73
2022/08/11 10:58:48;;;;;;;4.40;4.10;;;27.80;32.70;;;;;;5010271;28;20734;-74
2022/08/11 11:01:23;;;;;;;8.13;4.53;;;27.60;32.80;;;;;;5018531;28;20978;-75
2022/08/11 11:04:04;;;;;;;6.70;3.83;;;27.80;33.30;;;;;;5014603;28;20467;-75
2022/08/11 11:06:48;;;;;;;6.33;4.37;;;27.70;33.30;;;;;;5006046;28;20503;-73
2022/08/11 11:09:31;;;;;;;6.73;4.63;;;27.80;33.30;;;;;;5023932;28;20416;-72
2022/08/11 11:17:55;;;;;;;5.13;3.57;;;28.20;32.30;;;;;;5012783;28;20479;-74
2022/08/11 11:20:29;;;;;;;6.13;4.73;;;28.60;31.70;;;;;;5017407;28;20939;-73
2022/08/11 11:22:59;;;;;;;6.43;3.40;;;28.80;31.20;;;;;;5015327;28;20521;-73
2022/08/11 11:26:05;;;;;;;4.43;3.37;;;28.70;30.70;;;;;;5009624;28;20919;-74
2022/08/11 11:28:49;;;;;;;4.30;3.70;;;28.10;31.50;;;;;;5007682;28;20506;-74
2022/08/11 11:31:29;;;;;;;6.63;3.67;;;28.30;31.60;;;;;;5008829;28;20501;-74
2022/08/11 11:34:07;;;;;;;4.17;3.60;;;28.50;31.20;;;;;;5008018;28;20452;-73
2022/08/11 11:36:45;;;;;;;5.30;4.03;;;28.80;30.30;;;;;;5017029;28;20520;-75
2022/08/11 11:39:11;;;;;;;4.73;3.50;;;28.80;29.70;;;;;;5014900;28;20480;-74
2022/08/11 11:41:38;;;;;;;4.20;3.40;;;28.60;29.70;;;;;;5019120;28;20413;-75
2022/08/11 11:44:04;;;;;;;5.93;3.60;;;28.90;29.70;;;;;;5012233;28;20221;-71
2022/08/11 11:46:32;;;;;;;7.07;3.73;;;29.10;29.50;;;;;;5018027;28;20452;-71
2022/08/11 11:49:05;;;;;;;4.40;3.20;;;29.30;29.50;;;;;;5015668;28;20431;-72
2022/08/11 11:51:32;;;;;;;4.03;3.47;;;29.50;28.90;;;;;;5015571;28;20444;-72
2022/08/11 11:53:58;;;;;;;4.50;3.30;;;29.60;28.90;;;;;;5028257;28;20420;-74
2022/08/11 11:56:24;;;;;;;6.30;3.27;;;29.80;28.50;;;;;;5010675;28;20490;-74
2022/08/11 12:01:37;;;;;;;7.43;4.00;;;30.00;28.40;;;;;;5016950;28;20491;-73
2022/08/11 12:04:05;;;;;;;6.10;3.57;;;30.20;27.90;;;;;;5006614;28;21160;-74
2022/08/11 12:06:31;;;;;;;7.80;3.67;;;29.80;28.00;;;;;;5005480;28;20461;-74
2022/08/11 12:08:58;;;;;;;3.90;3.27;;;29.60;28.00;;;;;;4998573;28;20425;-72
2022/08/11 12:14:19;;;;;;;5.17;3.50;;;29.20;28.10;;;;;;5007126;28;20436;-74
2022/08/11 12:16:46;;;;;;;4.30;3.47;;;29.60;28.10;;;;;;5010118;28;20537;-74
2022/08/11 12:19:15;;;;;;;3.43;3.10;;;29.70;28.30;;;;;;5015092;28;20452;-74
2022/08/11 12:27:20;;;;;;;6.93;3.73;;;29.90;28.00;;;;;;5014438;28;20483;-71
2022/08/11 12:29:52;;;;;;;3.90;2.93;;;30.00;27.40;;;;;;4992774;28;20449;-73
2022/08/11 12:32:19;;;;;;;4.60;3.10;;;29.90;27.60;;;;;;5018483;28;20920;-73
2022/08/11 12:34:45;;;;;;;4.53;3.53;;;29.70;27.60;;;;;;5013670;28;21234;-73
2022/08/11 12:37:14;;;;;;;5.37;3.50;;;30.00;27.40;;;;;;5015618;28;20548;-73
2022/08/11 12:45:27;;;;;;;8.13;3.10;;;30.00;27.20;;;;;;5016402;28;20542;-73
2022/08/11 12:53:58;;;;;;;4.57;3.30;;;29.30;28.40;;;;;;5015664;28;20416;-72
2022/08/11 13:04:59;;;;;;;3.67;3.10;;;30.30;27.30;;;;;;5016898;28;20448;-73
2022/08/11 13:07:31;;;;;;;5.33;3.43;;;30.40;26.70;;;;;;5004086;28;20969;-72
2022/08/11 13:09:58;;;;;;;3.17;3.03;;;30.40;26.80;;;;;;5012261;28;20428;-72
2022/08/11 13:15:12;;;;;;;3.67;3.30;;;30.80;26.70;;;;;;5011413;28;20403;-73
2022/08/11 13:17:38;;;;;;;5.90;3.93;;;30.60;26.60;;;;;;5009824;28;20463;-71
2022/08/11 13:20:06;;;;;;;4.90;3.40;;;30.30;26.60;;;;;;5016178;28;20976;-75
2022/08/11 13:22:31;;;;;;;4.00;3.40;;;30.20;27.00;;;;;;5015355;28;20587;-73
2022/08/11 13:24:57;;;;;;;6.80;4.20;;;30.50;26.90;;;;;;5010786;28;20425;-72
2022/08/11 13:27:24;;;;;;;5.13;3.20;;;30.60;26.90;;;;;;5009889;28;20679;-71
2022/08/11 13:31:10;;;;;;;4.47;3.03;;;30.80;26.30;;;;;;4993185;28;20212;-72
2022/08/11 13:32:39;;;;;;;4.83;3.00;;;31.10;26.20;;;;;;5009190;28;20428;-72
2022/08/11 13:35:05;;;;;;;5.23;3.50;;;32.00;25.40;;;;;;5014172;28;20478;-72
2022/08/11 13:37:33;;;;;;;5.07;3.20;;;31.60;25.60;;;;;;5014703;28;20471;-72
2022/08/11 13:40:00;;;;;;;4.57;3.07;;;31.00;26.30;;;;;;5000151;28;20439;-74
2022/08/11 13:42:27;;;;;;;4.60;3.20;;;30.70;26.30;;;;;;5016725;28;20960;-74
2022/08/11 13:44:55;;;;;;;4.70;2.90;;;30.50;26.80;;;;;;5013646;28;20600;-71
2022/08/11 13:47:22;;;;;;;3.73;3.00;;;31.10;26.50;;;;;;5015823;28;20836;-73
2022/08/11 13:49:49;;;;;;;7.27;3.50;;;31.50;25.80;;;;;;5016914;28;20435;-72
2022/08/11 13:52:17;;;;;;;5.23;3.30;;;31.20;26.00;;;;;;5012268;28;20615;-73
2022/08/11 13:54:46;;;;;;;4.27;3.50;;;31.10;26.10;;;;;;5008073;28;20421;-74
2022/08/11 13:57:14;;;;;;;4.60;3.50;;;31.30;25.80;;;;;;5005811;28;21042;-74
2022/08/11 13:59:41;;;;;;;8.33;3.40;;;30.70;26.00;;;;;;5006423;28;20429;-74
2022/08/11 14:02:14;;;;;;;6.50;3.13;;;30.20;26.40;;;;;;5011559;28;20563;-73
2022/08/11 14:05:06;;;;;;;4.77;3.10;;;30.10;26.60;;;;;;5023249;28;20420;-72
2022/08/11 14:07:37;;;;;;;3.83;2.90;;;30.20;26.60;;;;;;5006868;28;20448;-73
2022/08/11 14:10:05;;;;;;;6.00;3.53;;;30.10;26.60;;;;;;4998368;28;20421;-73
2022/08/11 14:15:23;;;;;;;3.50;3.30;;;30.20;26.70;;;;;;5011853;28;20444;-73
2022/08/11 14:18:03;;;;;;;7.73;3.23;;;30.60;26.10;;;;;;5014869;28;20825;-75
2022/08/11 14:22:05;;;;;;;3.80;3.50;;;30.70;26.00;;;;;;5009681;28;20497;-74
2022/08/11 14:23:23;;;;;;;3.60;3.17;;;30.60;26.10;;;;;;5016120;28;20464;-75
2022/08/11 14:28:34;;;;;;;4.17;3.30;;;30.70;25.90;;;;;;5009090;28;20464;-73
2022/08/11 14:31:01;;;;;;;3.60;3.10;;;30.50;25.90;;;;;;5014369;28;20424;-74
2022/08/11 14:33:27;;;;;;;4.60;3.43;;;30.40;26.00;;;;;;5013081;28;20425;-74
2022/08/11 14:35:53;;;;;;;4.40;3.33;;;30.60;25.90;;;;;;5012004;28;20511;-74
2022/08/11 14:38:19;;;;;;;7.10;3.50;;;30.60;25.70;;;;;;5015259;28;20421;-75
2022/08/11 14:49:00;;;;;;;3.60;3.10;;;31.20;25.00;;;;;;5015524;28;20490;-73
2022/08/11 14:51:27;;;;;;;5.77;3.40;;;30.70;25.30;;;;;;5024092;28;20964;-75
2022/08/11 14:56:34;;;;;;;4.67;2.90;;;30.90;25.40;;;;;;5022315;28;20506;-74
2022/08/11 14:56:39;;;;;;;4.10;2.93;;;31.30;25.30;;;;;;5011165;28;20459;-73
2022/08/11 14:59:06;;;;;;;6.17;3.23;;;31.50;24.90;;;;;;5013808;28;20448;-72
2022/08/11 15:04:18;;;;;;;4.53;3.20;;;30.90;25.00;;;;;;5019197;28;21036;-74
2022/08/11 15:06:45;;;;;;;4.30;3.20;;;30.70;25.30;;;;;;5013067;28;20543;-72
2022/08/11 15:09:10;;;;;;;4.50;3.40;;;30.40;25.40;;;;;;5016844;28;20419;-72
2022/08/11 15:17:09;;;;;;;4.70;3.00;;;31.30;24.70;;;;;;5009884;28;20571;-73
2022/08/11 15:24:17;;;;;;;3.53;2.80;;;31.80;24.00;;;;;;5003155;28;20427;-73
2022/08/11 15:25:08;;;;;;;3.90;2.80;;;32.20;23.60;;;;;;5013362;28;20467;-73
2022/08/11 15:38:55;;;;;;;4.13;3.33;;;31.90;23.60;;;;;;5013427;28;20428;-73
2022/08/11 15:47:03;;;;;;;3.60;2.80;;;32.10;23.60;;;;;;5015394;28;20959;-75
2022/08/11 15:49:33;;;;;;;3.57;2.67;;;32.10;23.50;;;;;;5016262;28;21120;-73
2022/08/11 15:52:17;;;;;;;3.53;3.00;;;31.90;23.70;;;;;;5015043;28;20778;-72
2022/08/11 15:54:45;;;;;;;6.90;3.40;;;31.80;23.70;;;;;;5014707;28;20429;-73
2022/08/11 16:04:10;;;;;;;5.60;3.07;;;31.50;24.20;;;;;;5009605;28;20469;-73
2022/08/11 16:05:20;;;;;;;4.60;3.47;;;32.00;24.00;;;;;;5023142;28;20436;-74
2022/08/11 16:07:48;;;;;;;5.47;3.73;;;31.90;24.10;;;;;;5004400;28;20464;-74
2022/08/11 16:10:18;;;;;;;7.10;3.47;;;31.90;24.10;;;;;;5002724;28;20923;-75
2022/08/11 16:18:39;;;;;;;8.63;3.43;;;32.40;23.70;;;;;;5011359;28;20444;-73
2022/08/11 16:21:11;;;;;;;6.33;3.80;;;32.00;24.30;;;;;;5012805;28;20999;-74
2022/08/11 16:23:40;;;;;;;7.80;3.33;;;32.10;24.30;;;;;;5012748;28;21109;-73
2022/08/11 16:26:08;;;;;;;9.03;3.77;;;32.10;24.30;;;;;;5002429;28;20543;-74
2022/08/11 16:28:37;;;;;;;4.37;3.97;;;32.00;24.40;;;;;;5013945;28;20448;-74
2022/08/11 16:31:09;;;;;;;7.53;4.60;;;31.90;24.40;;;;;;5019392;28;20417;-73
2022/08/11 16:33:39;;;;;;;7.90;4.23;;;31.20;25.10;;;;;;5019722;28;20916;-73
2022/08/11 16:38:55;;;;;;;4.10;3.20;;;31.30;25.00;;;;;;5021837;28;20411;-74
2022/08/11 16:46:59;;;;;;;5.23;3.00;;;31.20;25.10;;;;;;5012420;28;20542;-72
2022/08/11 16:49:31;;;;;;;4.00;3.80;;;31.30;25.10;;;;;;5021786;28;20451;-73
2022/08/11 16:52:02;;;;;;;6.30;3.87;;;31.20;25.10;;;;;;5016515;28;20432;-73
2022/08/11 16:54:31;;;;;;;5.27;3.60;;;30.70;25.40;;;;;;5022430;28;20432;-75
2022/08/11 16:59:12;;;;;;;7.30;4.00;;;30.60;25.40;;;;;;5017219;28;20970;-73
2022/08/11 16:59:46;;;;;;;5.50;3.07;;;30.60;25.30;;;;;;5009569;28;20428;-75
2022/08/11 17:13:07;;;;;;;5.77;3.53;;;30.40;25.50;;;;;;5021310;28;20424;-74
2022/08/11 17:13:47;;;;;;;5.10;3.93;;;29.80;26.20;;;;;;5004256;28;20436;-73
2022/08/11 17:16:19;;;;;;;5.00;3.60;;;29.80;26.20;;;;;;5012165;28;20459;-74
2022/08/11 17:18:50;;;;;;;5.47;4.07;;;29.80;26.20;;;;;;5013520;28;21194;-73
2022/08/11 17:21:25;;;;;;;7.70;4.60;;;29.80;26.30;;;;;;5020504;28;20428;-74
2022/08/11 17:23:58;;;;;;;4.80;3.50;;;29.80;26.30;;;;;;5014414;28;20452;-73
2022/08/11 17:26:26;;;;;;;5.53;3.33;;;29.80;26.40;;;;;;5002628;28;20457;-74
2022/08/11 17:28:58;;;;;;;6.77;5.30;;;29.70;26.60;;;;;;4993443;28;20473;-73
2022/08/11 17:36:58;;;;;;;8.83;3.73;;;29.60;26.70;;;;;;5016056;28;20495;-73
2022/08/11 17:39:28;;;;;;;4.50;3.23;;;29.60;26.80;;;;;;5012500;28;20440;-73
2022/08/11 17:50:11;;;;;;;5.53;3.97;;;29.30;27.30;;;;;;5015986;28;20424;-73
2022/08/11 18:00:53;;;;;;;7.57;3.87;;;29.30;27.20;;;;;;5015041;28;21098;-75
2022/08/11 18:03:31;;;;;;;7.73;5.57;;;29.30;27.20;;;;;;5017227;28;20460;-75
2022/08/11 18:06:00;;;;;;;7.70;5.10;;;29.30;27.40;;;;;;5008405;28;20413;-73
